Airfield :
LOGIN :

Register | Disclaimer

   EN    FR    IT 

 










Legend :    VFR   Marginal VFR   IFR   Intensive IFR   Very Intensive IFR
Visi :
Ceiling :
>= 8 km
>= 3000ft
5 to 8 km
1000 to 3000 ft
1500m to 5 km
500 to 1000 ft
800 to 1500m
200 to 500 ft
< 800m
< 200 ft
Symbols :   Thunderstorms  Fog  Heavy snow  Heavy precipitations  Wind > 20 kt
SIGMETs :     Misc.  Thunderstorms  Icing  Turbulence  Mountain Waves  Volcanic Ashes






- Airport Elevation : 512 ft
- IATA code : URO


LFOP - Rouen Vallée de Seine

CURRENT METAR :
  • 161930Z AUTO 25016KT 9999 -RA FEW010/// SCT043/// OVC052/// ///TCU 08/07 Q1009 TEMPO 25015G25KT 3000 SHRA BKN008 BKN020TCU

EXPIRED METARs :
  • 161900Z AUTO 25014KT 220V300 9999 -RA BKN009/// OVC015/// ///TCU 08/07 Q1008
  • 161830Z AUTO 25014KT 7000 -RA OVC008/// ///CB 08/07 Q1007 TEMPO 3000 SHRA BKN013 BKN020TCU BECMG 25015G25KT
  • 161800Z AUTO 25011KT 220V280 9999 -RA OVC006/// ///TCU 08/07 Q1007 TEMPO 3000 SHRA BKN013 BKN020TCU BECMG 25015G25KT
  • 161730Z AUTO 28009KT 250V310 4900 -RA BR OVC007/// ///TCU 08/07 Q1006 BECMG 28017G27KT 9999 NSW BKN030
  • 161700Z AUTO 30017G28KT 270V330 8000 -RA BKN009/// BKN018/// OVC025/// ///CB 08/07 Q1005 TEMPO 3000 RA OVC010

TAF AMD TAF LFOP
Valid from the 16 at 18:00 until the 17 at 18:00 UTC


161826Z 1618/1718 26015KT 9999 OVC035
TEMPO 1618/1623 25015G25KT 3000 SHRA BKN008 BKN020TCU
BECMG 1700/1703 20010KT
BECMG 1709/1712 22015G25KT
TEMPO 1712/1718 22025G35KT 3000 SHRA BKN015CB
ATIS : +33 2 35 80 80 34
Met : +33 2 32 86 52 80



MET'MAP, your aeronautical weather chart ! - Copyright ORBIFLY December 2007 - Disclaimer

ORBIFLY MET'MAP TEAM :

Programming & Development : Alexandra Zaïnal
Concept & original design : Baudouin d'Aumeries
Assistance for programming : Marc-Olivier Méhu
Technical & hardware support : Manuel Goepfert

Contact : metmap@orbifly.com




SOURCES & CREDITS :

   NOAA